createdAt,value
2018-03-17T00:00:16.331Z,29.27
2018-03-17T00:02:50.864Z,26.00
2018-03-17T00:05:23.319Z,21.30
2018-03-17T00:07:58.012Z,20.50
2018-03-17T00:10:26.543Z,23.17
2018-03-17T00:12:53.624Z,24.17
2018-03-17T00:15:22.375Z,24.27
2018-03-17T00:17:50.079Z,23.47
2018-03-17T00:20:17.899Z,21.50
2018-03-17T00:22:46.307Z,23.03
2018-03-17T00:25:33.461Z,23.70
2018-03-17T00:28:00.719Z,24.33
2018-03-17T00:30:29.669Z,22.83
2018-03-17T00:32:56.591Z,23.80
2018-03-17T00:35:25.551Z,25.50
2018-03-17T00:37:54.363Z,24.67
2018-03-17T00:40:20.980Z,26.17
2018-03-17T00:42:47.675Z,23.90
2018-03-17T00:45:15.395Z,23.37
2018-03-17T00:47:54.271Z,22.50
2018-03-17T00:50:27.407Z,23.27
2018-03-17T00:52:59.095Z,22.40
2018-03-17T00:55:29.965Z,19.70
2018-03-17T00:58:01.257Z,21.53
2018-03-17T01:00:32.679Z,21.67
2018-03-17T01:03:04.248Z,22.70
2018-03-17T01:05:31.036Z,24.60
2018-03-17T01:08:00.987Z,22.10
2018-03-17T01:10:39.436Z,22.63
2018-03-17T01:13:23.813Z,20.73
2018-03-17T01:15:56.419Z,21.50
2018-03-17T01:18:46.875Z,23.70
2018-03-17T01:21:15.351Z,23.30
2018-03-17T01:23:48.754Z,21.73
2018-03-17T01:26:19.135Z,19.60
2018-03-17T01:28:52.775Z,22.53
2018-03-17T01:31:20.283Z,22.07
2018-03-17T01:33:49.275Z,19.53
2018-03-17T01:36:15.996Z,22.30
2018-03-17T01:38:50.289Z,23.37
2018-03-17T01:41:17.440Z,23.77
2018-03-17T01:43:48.153Z,23.23
2018-03-17T01:46:15.143Z,23.90
2018-03-17T01:48:45.126Z,21.27
2018-03-17T01:51:15.084Z,21.30
2018-03-17T01:54:02.784Z,22.27
2018-03-17T01:56:32.376Z,24.40
2018-03-17T01:59:07.996Z,23.03
2018-03-17T02:01:38.191Z,22.70
2018-03-17T02:04:06.195Z,22.43
2018-03-17T02:06:39.093Z,23.30
2018-03-17T02:09:11.799Z,23.80
2018-03-17T02:11:40.487Z,24.30
2018-03-17T02:14:14.899Z,23.83
2018-03-17T02:16:45.972Z,24.20
2018-03-17T02:19:12.858Z,24.53
2018-03-17T02:21:41.111Z,24.90
2018-03-17T02:24:13.051Z,27.63
2018-03-17T02:26:41.008Z,24.90
2018-03-17T02:29:20.968Z,24.53
2018-03-17T02:31:54.095Z,24.47
2018-03-17T02:34:23.063Z,23.77
2018-03-17T02:36:55.656Z,28.07
2018-03-17T02:39:34.531Z,23.80
2018-03-17T02:42:02.578Z,25.30
2018-03-17T02:44:31.487Z,25.03
2018-03-17T02:47:03.359Z,23.23
2018-03-17T02:49:31.053Z,27.80
2018-03-17T02:52:02.750Z,24.80
2018-03-17T02:54:33.431Z,23.90
2018-03-17T02:57:03.100Z,27.37
2018-03-17T02:59:35.316Z,28.30
2018-03-17T03:02:02.819Z,26.63
2018-03-17T03:04:33.211Z,27.50
2018-03-17T03:07:04.132Z,25.13
2018-03-17T03:09:32.770Z,26.67
2018-03-17T03:12:01.011Z,27.20
2018-03-17T03:14:33.620Z,23.57
2018-03-17T03:17:04.291Z,25.60
2018-03-17T03:19:31.891Z,25.90
2018-03-17T03:22:00.960Z,26.80
2018-03-17T03:24:33.318Z,25.60
2018-03-17T03:27:06.184Z,25.87
2018-03-17T03:29:36.007Z,26.23
2018-03-17T03:32:09.272Z,23.50
2018-03-17T03:34:37.712Z,19.83
2018-03-17T03:37:04.306Z,26.33
2018-03-17T03:39:35.616Z,25.37
2018-03-17T03:42:26.955Z,24.27
2018-03-17T03:45:00.772Z,26.00
2018-03-17T03:47:28.495Z,27.07
2018-03-17T03:50:03.655Z,24.03
2018-03-17T03:52:37.487Z,24.90
2018-03-17T03:55:11.039Z,24.80
2018-03-17T03:57:53.210Z,24.80
2018-03-17T04:00:20.567Z,24.10
2018-03-17T04:03:08.279Z,24.03
2018-03-17T04:05:35.376Z,25.83
2018-03-17T04:08:01.891Z,26.13
2018-03-17T04:10:32.156Z,23.07
2018-03-17T04:13:05.588Z,25.03
2018-03-17T04:15:42.692Z,24.73
2018-03-17T04:18:21.323Z,22.90
2018-03-17T04:20:48.582Z,25.17
2018-03-17T04:23:22.628Z,24.57
2018-03-17T04:25:55.882Z,24.47
2018-03-17T04:28:28.504Z,24.73
2018-03-17T04:30:57.144Z,25.57
2018-03-17T04:33:25.359Z,22.87
2018-03-17T04:35:51.891Z,21.87
2018-03-17T04:38:22.108Z,24.07
2018-03-17T04:41:02.960Z,23.90
2018-03-17T04:43:30.434Z,22.83
2018-03-17T04:45:58.092Z,23.53
2018-03-17T04:48:31.795Z,24.87
2018-03-17T04:51:08.039Z,24.20
2018-03-17T04:53:35.395Z,24.20
2018-03-17T04:56:11.420Z,23.70
2018-03-17T04:58:41.779Z,24.00
2018-03-17T05:01:13.891Z,24.67
2018-03-17T05:03:41.717Z,24.57
2018-03-17T05:06:08.388Z,23.33
2018-03-17T05:08:41.783Z,24.13
2018-03-17T05:11:11.428Z,26.47
2018-03-17T05:13:43.972Z,24.60
2018-03-17T05:16:11.756Z,22.27
2018-03-17T05:18:38.521Z,27.53
2018-03-17T05:21:05.231Z,23.77
2018-03-17T05:23:40.841Z,26.00
2018-03-17T05:26:13.973Z,26.63
2018-03-17T05:28:43.385Z,27.20
2018-03-17T05:31:13.771Z,30.53
2018-03-17T05:33:42.078Z,26.60
2018-03-17T05:36:14.568Z,25.70
2018-03-17T05:38:48.171Z,27.40
2018-03-17T05:41:14.771Z,26.80
2018-03-17T05:44:03.212Z,27.03
2018-03-17T05:46:34.227Z,28.13
2018-03-17T05:49:01.567Z,29.23
2018-03-17T05:51:29.156Z,29.60
2018-03-17T05:53:59.312Z,27.77
2018-03-17T05:56:29.658Z,29.53
2018-03-17T05:59:07.063Z,28.93
2018-03-17T06:01:34.059Z,28.70
2018-03-17T06:04:01.409Z,29.67
2018-03-17T06:06:37.688Z,29.77
2018-03-17T06:09:05.131Z,33.23
2018-03-17T06:11:37.861Z,29.37
2018-03-17T06:14:06.240Z,30.30
2018-03-17T06:16:37.700Z,28.60
2018-03-17T06:19:06.354Z,32.30
2018-03-17T06:21:38.502Z,33.90
2018-03-17T06:24:08.872Z,31.63
2018-03-17T06:26:46.522Z,33.30
2018-03-17T06:29:19.016Z,34.43
2018-03-17T06:31:48.709Z,33.87
2018-03-17T06:34:15.319Z,30.77
2018-03-17T06:36:42.895Z,32.63
2018-03-17T06:39:12.295Z,36.90
2018-03-17T06:41:40.184Z,37.47
2018-03-17T06:44:07.591Z,36.40
2018-03-17T06:46:37.751Z,32.40
2018-03-17T06:49:13.839Z,33.57
2018-03-17T06:51:40.609Z,28.57
2018-03-17T06:54:10.656Z,28.20
2018-03-17T06:56:43.188Z,26.03
2018-03-17T06:59:16.604Z,30.90
2018-03-17T07:01:44.956Z,29.00
2018-03-17T07:04:15.171Z,26.00
2018-03-17T07:06:50.115Z,23.43
2018-03-17T07:09:18.799Z,23.17
2018-03-17T07:11:48.767Z,21.80
2018-03-17T07:14:15.352Z,22.90
2018-03-17T07:16:46.819Z,22.83
2018-03-17T07:19:16.399Z,22.07
2018-03-17T07:21:43.976Z,24.40
2018-03-17T07:24:11.463Z,23.27
2018-03-17T07:26:39.175Z,22.27
2018-03-17T07:29:07.631Z,21.60
2018-03-17T07:31:54.296Z,23.10
2018-03-17T07:34:23.203Z,19.43
2018-03-17T07:36:52.140Z,20.87
2018-03-17T07:39:24.375Z,21.73
2018-03-17T07:41:51.312Z,20.70
2018-03-17T07:44:26.212Z,21.83
2018-03-17T07:47:00.821Z,22.00
2018-03-17T07:49:30.028Z,20.07
2018-03-17T07:51:58.635Z,20.70
2018-03-17T07:54:28.415Z,19.60
2018-03-17T07:57:05.748Z,17.67
2018-03-17T07:59:38.351Z,18.77
2018-03-17T08:02:06.471Z,17.20
2018-03-17T08:04:37.872Z,19.70
2018-03-17T08:07:04.724Z,19.20
2018-03-17T08:09:31.519Z,18.60
2018-03-17T08:11:59.572Z,17.00
2018-03-17T08:14:26.983Z,16.17
2018-03-17T08:17:04.891Z,17.80
2018-03-17T08:19:33.243Z,17.07
2018-03-17T08:22:02.320Z,20.40
2018-03-17T08:24:31.118Z,18.03
2018-03-17T08:26:59.260Z,18.87
2018-03-17T08:29:26.489Z,17.03
2018-03-17T08:31:58.439Z,16.97
2018-03-17T08:34:29.209Z,17.93
2018-03-17T08:36:55.799Z,16.63
2018-03-17T08:39:27.422Z,17.97
2018-03-17T08:42:02.916Z,17.93
2018-03-17T08:44:31.636Z,17.20
2018-03-17T08:46:59.948Z,16.07
2018-03-17T08:49:31.943Z,16.63
2018-03-17T08:52:02.720Z,15.27
2018-03-17T08:54:37.444Z,15.60
2018-03-17T08:57:06.288Z,15.30
2018-03-17T08:59:40.903Z,14.60
2018-03-17T09:02:09.857Z,17.63
2018-03-17T09:05:09.556Z,16.73
2018-03-17T09:07:37.051Z,16.07
2018-03-17T09:10:04.703Z,15.10
2018-03-17T09:12:34.176Z,16.20
2018-03-17T09:15:01.052Z,16.60
2018-03-17T09:17:38.424Z,17.20
2018-03-17T09:20:09.676Z,16.70
2018-03-17T09:22:36.993Z,15.73
2018-03-17T09:25:04.892Z,17.33
2018-03-17T09:27:31.904Z,17.63
2018-03-17T09:30:00.508Z,15.53
2018-03-17T09:32:33.412Z,15.73
2018-03-17T09:35:11.460Z,18.00
2018-03-17T09:37:39.404Z,17.00
2018-03-17T09:40:07.495Z,16.27
2018-03-17T09:42:39.060Z,16.03
2018-03-17T09:45:07.587Z,14.83
2018-03-17T09:47:40.262Z,14.70
2018-03-17T09:50:20.811Z,15.17
2018-03-17T09:52:51.195Z,15.53
2018-03-17T09:55:25.887Z,15.20
2018-03-17T09:58:11.601Z,14.20
2018-03-17T10:00:39.248Z,14.60
2018-03-17T10:03:07.620Z,13.10
2018-03-17T10:05:37.604Z,15.67
2018-03-17T10:08:05.079Z,14.30
2018-03-17T10:10:34.876Z,15.47
2018-03-17T10:13:05.284Z,14.90
2018-03-17T10:15:50.859Z,16.13
2018-03-17T10:18:25.948Z,14.87
2018-03-17T10:20:54.227Z,14.33
2018-03-17T10:23:21.057Z,13.80
2018-03-17T10:25:51.224Z,14.20
2018-03-17T10:28:33.923Z,14.00
2018-03-17T10:31:02.051Z,15.33
2018-03-17T10:33:38.917Z,13.20
2018-03-17T10:36:15.153Z,16.10
2018-03-17T10:38:43.427Z,12.57
2018-03-17T10:41:10.784Z,14.97
2018-03-17T10:43:44.329Z,14.60
2018-03-17T10:46:24.459Z,15.10
2018-03-17T10:49:08.107Z,13.93
2018-03-17T10:51:38.471Z,14.27
2018-03-17T10:54:09.432Z,15.27
2018-03-17T10:56:45.852Z,15.50
2018-03-17T10:59:17.584Z,15.30
2018-03-17T11:01:44.184Z,16.10
2018-03-17T11:04:18.286Z,15.40
2018-03-17T11:06:46.480Z,14.13
2018-03-17T11:09:20.301Z,13.70
2018-03-17T11:11:47.052Z,14.10
2018-03-17T11:14:17.585Z,13.13
2018-03-17T11:16:46.004Z,14.57
2018-03-17T11:19:13.332Z,13.90
2018-03-17T11:21:46.058Z,14.23
2018-03-17T11:24:18.216Z,14.00
2018-03-17T11:26:49.326Z,13.43
2018-03-17T11:29:23.976Z,10.90
2018-03-17T11:31:52.627Z,12.87
2018-03-17T11:34:35.871Z,12.07
2018-03-17T11:37:08.177Z,14.07
2018-03-17T11:39:42.846Z,13.20
2018-03-17T11:42:09.791Z,13.83
2018-03-17T11:44:36.387Z,14.20
2018-03-17T11:47:04.968Z,13.90
2018-03-17T11:49:38.531Z,14.40
2018-03-17T11:52:06.867Z,12.17
2018-03-17T11:54:35.123Z,16.17
2018-03-17T11:57:01.792Z,15.93
2018-03-17T11:59:36.502Z,16.80
2018-03-17T12:02:05.156Z,13.50
2018-03-17T12:04:43.339Z,16.50
2018-03-17T12:07:13.663Z,15.80
2018-03-17T12:09:41.204Z,16.40
2018-03-17T12:12:08.937Z,16.80
2018-03-17T12:14:43.431Z,15.47
2018-03-17T12:17:33.168Z,15.63
2018-03-17T12:20:05.716Z,13.53
2018-03-17T12:22:39.045Z,15.87
2018-03-17T12:25:09.272Z,15.00
2018-03-17T12:27:37.575Z,15.60
2018-03-17T12:30:13.654Z,14.67
2018-03-17T12:32:48.499Z,13.77
2018-03-17T12:35:28.111Z,15.10
2018-03-17T12:38:05.462Z,14.60
2018-03-17T12:40:34.234Z,13.07
2018-03-17T12:43:01.971Z,14.37
2018-03-17T12:45:53.912Z,14.90
2018-03-17T12:48:24.466Z,13.50
2018-03-17T12:50:58.453Z,13.13
2018-03-17T12:53:27.691Z,12.80
2018-03-17T12:56:12.218Z,13.03
2018-03-17T12:58:51.711Z,14.00
2018-03-17T13:01:22.199Z,14.23
2018-03-17T13:03:49.085Z,15.07
2018-03-17T13:06:15.841Z,14.03
2018-03-17T13:08:42.610Z,13.87
2018-03-17T13:11:10.324Z,14.50
2018-03-17T13:13:38.541Z,13.73
2018-03-17T13:16:06.216Z,12.73
2018-03-17T13:18:33.551Z,12.77
2018-03-17T13:21:04.528Z,14.27
2018-03-17T13:23:31.480Z,13.70
2018-03-17T13:26:00.943Z,12.50
2018-03-17T13:28:30.958Z,13.00
2018-03-17T13:31:00.388Z,12.73
2018-03-17T13:33:27.019Z,13.33
2018-03-17T13:36:09.667Z,14.10
2018-03-17T13:38:41.861Z,14.10
2018-03-17T13:41:09.891Z,15.00
2018-03-17T13:43:43.603Z,13.97
2018-03-17T13:46:10.919Z,14.47
2018-03-17T13:48:38.156Z,13.60
2018-03-17T13:51:08.240Z,15.17
2018-03-17T13:53:35.568Z,15.73
2018-03-17T13:56:02.415Z,13.13
2018-03-17T13:58:34.942Z,13.97
2018-03-17T14:01:05.552Z,13.63
2018-03-17T14:03:43.101Z,13.50
2018-03-17T14:06:12.072Z,12.23
2018-03-17T14:09:01.430Z,12.90
2018-03-17T14:11:28.051Z,12.63
2018-03-17T14:14:20.435Z,13.10
2018-03-17T14:16:47.667Z,15.10
2018-03-17T14:19:18.723Z,12.70
2018-03-17T14:21:47.376Z,11.93
2018-03-17T14:24:14.664Z,12.27
2018-03-17T14:26:41.303Z,12.90
2018-03-17T14:29:09.803Z,12.00
2018-03-17T14:31:38.076Z,12.20
2018-03-17T14:34:06.531Z,12.77
2018-03-17T14:36:38.198Z,12.53
2018-03-17T14:39:08.512Z,12.00
2018-03-17T14:41:42.488Z,13.10
2018-03-17T14:44:10.188Z,11.97
2018-03-17T14:46:39.526Z,11.50
2018-03-17T14:49:09.450Z,13.53
2018-03-17T14:51:39.660Z,11.70
2018-03-17T14:54:09.523Z,12.20
2018-03-17T14:56:36.966Z,12.50
2018-03-17T14:59:07.749Z,10.40
2018-03-17T15:01:36.670Z,11.27
2018-03-17T15:04:03.868Z,11.73
2018-03-17T15:06:38.522Z,12.60
2018-03-17T15:09:08.285Z,12.27
2018-03-17T15:11:38.763Z,11.27
2018-03-17T15:14:09.432Z,12.00
2018-03-17T15:16:40.099Z,12.63
2018-03-17T15:19:06.773Z,12.57
2018-03-17T15:21:42.513Z,11.90
2018-03-17T15:24:13.789Z,12.80
2018-03-17T15:26:40.307Z,10.97
2018-03-17T15:29:09.688Z,12.80
2018-03-17T15:31:43.235Z,12.40
2018-03-17T15:34:11.612Z,11.47
2018-03-17T15:36:42.656Z,12.87
2018-03-17T15:39:15.939Z,12.23
2018-03-17T15:41:46.531Z,12.30
2018-03-17T15:44:20.627Z,11.07
2018-03-17T15:46:50.520Z,12.33
2018-03-17T15:49:17.798Z,11.37
2018-03-17T15:51:45.716Z,12.00
2018-03-17T15:54:13.320Z,13.00
2018-03-17T15:56:40.015Z,11.00
2018-03-17T15:59:07.861Z,12.90
2018-03-17T16:01:44.743Z,14.17
2018-03-17T16:04:16.468Z,12.80
2018-03-17T16:06:51.883Z,13.27
2018-03-17T16:09:20.318Z,11.83
2018-03-17T16:11:47.843Z,12.47
2018-03-17T16:14:16.383Z,12.33
2018-03-17T16:16:44.777Z,13.10
2018-03-17T16:19:18.989Z,12.70
2018-03-17T16:21:46.748Z,13.10
2018-03-17T16:24:14.315Z,13.07
2018-03-17T16:26:42.620Z,11.10
2018-03-17T16:29:21.711Z,12.87
2018-03-17T16:31:56.838Z,13.93
2018-03-17T16:34:35.699Z,12.30
2018-03-17T16:37:09.041Z,12.97
2018-03-17T16:39:36.771Z,14.00
2018-03-17T16:42:09.677Z,13.23
2018-03-17T16:44:38.765Z,12.90
2018-03-17T16:47:06.435Z,13.70
2018-03-17T16:49:38.995Z,12.97
2018-03-17T16:52:09.972Z,12.27
2018-03-17T16:54:41.887Z,13.20
2018-03-17T16:57:10.243Z,14.60
2018-03-17T16:59:39.569Z,13.73
2018-03-17T17:02:12.168Z,12.77
2018-03-17T17:04:42.621Z,12.83
2018-03-17T17:07:12.389Z,12.70
2018-03-17T17:09:39.970Z,13.43
2018-03-17T17:12:06.987Z,11.47
2018-03-17T17:14:35.551Z,11.53
2018-03-17T17:17:16.445Z,13.00
2018-03-17T17:19:47.056Z,13.93
2018-03-17T17:22:15.744Z,12.40
2018-03-17T17:24:43.220Z,13.50
2018-03-17T17:27:16.324Z,13.37
2018-03-17T17:29:49.587Z,14.47
2018-03-17T17:32:21.848Z,12.90
2018-03-17T17:34:56.248Z,12.27
2018-03-17T17:37:23.511Z,13.90
2018-03-17T17:39:57.268Z,13.37
2018-03-17T17:42:25.985Z,12.87
2018-03-17T17:45:02.095Z,12.20
2018-03-17T17:47:36.484Z,12.87
2018-03-17T17:50:06.475Z,11.97
2018-03-17T17:52:34.092Z,13.60
2018-03-17T17:55:09.391Z,12.77
2018-03-17T17:57:37.900Z,13.80
2018-03-17T18:00:11.460Z,14.30
2018-03-17T18:02:41.092Z,14.53
2018-03-17T18:05:09.533Z,15.20
2018-03-17T18:07:37.301Z,12.90
2018-03-17T18:10:12.554Z,13.43
2018-03-17T18:12:44.236Z,13.37
2018-03-17T18:15:13.813Z,13.70
2018-03-17T18:17:40.571Z,13.90
2018-03-17T18:20:11.143Z,11.77
2018-03-17T18:22:39.211Z,11.70
2018-03-17T18:25:11.412Z,13.80
2018-03-17T18:27:38.999Z,13.03
2018-03-17T18:30:11.508Z,12.80
2018-03-17T18:32:39.716Z,12.77
2018-03-17T18:35:06.494Z,12.20
2018-03-17T18:37:33.840Z,11.03
2018-03-17T18:40:04.257Z,12.70
2018-03-17T18:42:31.759Z,12.40
2018-03-17T18:45:03.679Z,12.77
2018-03-17T18:47:37.297Z,12.57
2018-03-17T18:50:12.618Z,13.27
2018-03-17T18:52:39.259Z,11.60
2018-03-17T18:55:08.817Z,13.07
2018-03-17T18:57:36.315Z,13.60
2018-03-17T19:00:04.740Z,12.13
2018-03-17T19:02:32.333Z,12.67
2018-03-17T19:05:06.977Z,10.40
2018-03-17T19:07:36.235Z,11.77
2018-03-17T19:10:04.825Z,13.90
2018-03-17T19:12:32.371Z,13.20
2018-03-17T19:15:09.044Z,12.70
2018-03-17T19:17:44.396Z,14.10
2018-03-17T19:20:37.332Z,14.23
2018-03-17T19:23:06.824Z,11.50
2018-03-17T19:25:41.473Z,11.73
2018-03-17T19:28:15.605Z,12.60
2018-03-17T19:30:42.958Z,12.27
2018-03-17T19:33:10.777Z,13.30
2018-03-17T19:35:39.814Z,13.83
2018-03-17T19:38:13.573Z,13.87
2018-03-17T19:40:42.437Z,13.83
2018-03-17T19:43:14.340Z,13.20
2018-03-17T19:45:42.068Z,14.00
2018-03-17T19:48:12.001Z,11.70
2018-03-17T19:50:38.697Z,12.60
2018-03-17T19:53:13.601Z,13.90
2018-03-17T19:55:40.430Z,12.80
2018-03-17T19:58:12.450Z,14.60
2018-03-17T20:00:54.019Z,12.63
2018-03-17T20:03:27.548Z,13.43
2018-03-17T20:05:59.440Z,13.77
2018-03-17T20:08:28.024Z,13.97
2018-03-17T20:10:54.934Z,13.37
2018-03-17T20:13:22.487Z,11.77
2018-03-17T20:15:49.137Z,13.17
2018-03-17T20:18:16.688Z,12.70
2018-03-17T20:20:58.079Z,12.60
2018-03-17T20:23:27.103Z,13.87
2018-03-17T20:25:57.488Z,12.10
2018-03-17T20:28:40.471Z,13.10
2018-03-17T20:31:08.977Z,14.80
2018-03-17T20:33:37.591Z,13.03
2018-03-17T20:36:31.823Z,13.47
2018-03-17T20:39:10.744Z,15.80
2018-03-17T20:41:42.491Z,15.40
2018-03-17T20:44:09.950Z,14.03
2018-03-17T20:46:37.512Z,15.17
2018-03-17T20:49:13.323Z,14.50
2018-03-17T20:51:45.745Z,14.80
2018-03-17T20:54:18.156Z,15.57
2018-03-17T20:56:51.420Z,14.90
2018-03-17T20:59:25.175Z,13.17
2018-03-17T21:01:59.803Z,14.20
2018-03-17T21:04:32.360Z,14.03
2018-03-17T21:07:05.771Z,13.27
2018-03-17T21:09:41.800Z,14.10
2018-03-17T21:12:17.264Z,14.40
2018-03-17T21:14:47.583Z,14.87
2018-03-17T21:17:15.547Z,15.00
2018-03-17T21:19:42.942Z,15.23
2018-03-17T21:22:17.965Z,14.10
2018-03-17T21:24:45.633Z,14.93
2018-03-17T21:27:13.643Z,14.13
2018-03-17T21:29:43.081Z,11.30
2018-03-17T21:32:12.781Z,12.50
2018-03-17T21:34:44.347Z,12.20
2018-03-17T21:37:17.494Z,13.60
2018-03-17T21:39:51.444Z,16.37
2018-03-17T21:42:25.048Z,16.60
2018-03-17T21:44:57.852Z,16.40
2018-03-17T21:47:29.288Z,18.20
2018-03-17T21:49:57.267Z,17.63
2018-03-17T21:52:37.778Z,17.43
2018-03-17T21:55:05.243Z,15.83
2018-03-17T21:57:33.532Z,15.80
2018-03-17T22:00:05.528Z,17.43
2018-03-17T22:02:35.296Z,16.37
2018-03-17T22:05:05.595Z,16.03
2018-03-17T22:07:32.199Z,16.77
2018-03-17T22:10:01.204Z,16.63
2018-03-17T22:12:42.418Z,18.93
2018-03-17T22:15:19.375Z,16.70
2018-03-17T22:17:57.994Z,17.13
2018-03-17T22:20:29.467Z,18.10
2018-03-17T22:23:02.139Z,18.90
2018-03-17T22:25:37.787Z,17.37
2018-03-17T22:28:08.883Z,13.87
2018-03-17T22:30:40.623Z,17.60
2018-03-17T22:33:08.179Z,18.00
2018-03-17T22:35:43.117Z,18.42
2018-03-17T22:38:10.794Z,15.17
2018-03-17T22:40:43.387Z,18.40
2018-03-17T22:43:16.671Z,16.07
2018-03-17T22:45:46.679Z,16.50
2018-03-17T22:48:19.387Z,16.50
2018-03-17T22:50:52.980Z,15.18
2018-03-17T22:53:21.420Z,13.27
2018-03-17T22:55:56.500Z,15.67
2018-03-17T22:58:24.111Z,16.00
2018-03-17T23:00:51.471Z,17.47
2018-03-17T23:03:27.743Z,16.07
2018-03-17T23:05:56.435Z,19.00
2018-03-17T23:08:24.330Z,16.33
2018-03-17T23:10:51.816Z,19.90
2018-03-17T23:13:21.984Z,20.30
2018-03-17T23:15:50.608Z,23.10
2018-03-17T23:18:22.818Z,21.12
2018-03-17T23:20:50.115Z,21.27
2018-03-17T23:23:22.473Z,16.30
2018-03-17T23:25:51.139Z,17.37
2018-03-17T23:28:25.517Z,23.37
2018-03-17T23:30:55.075Z,19.47
2018-03-17T23:33:37.339Z,19.23
2018-03-17T23:36:11.195Z,19.60
2018-03-17T23:38:38.835Z,20.87
2018-03-17T23:41:08.292Z,18.77
2018-03-17T23:43:44.032Z,19.63
2018-03-17T23:46:17.406Z,20.52
2018-03-17T23:48:46.752Z,19.90
2018-03-17T23:51:17.887Z,21.10
2018-03-17T23:53:44.575Z,21.97
2018-03-17T23:56:17.888Z,19.50
2018-03-17T23:58:45.527Z,20.10
